Accueil
METAR-TAF:

METAR-TAF

Aéroports :

Yeovilton, Angleterre

latitude: 51-00N, longitude: 002-38W, altitude: 23 m

Observation

Le bulletin a été fait il y a 29 minutes, à 21:50 UTC
Vent 7 kt de nord-ouest
Température 11°C
Humidité 94%
Pression 1032 hPa
Visibilité 10 km ou plus
pas de nuages en-dessous de 1500 mètres et pas de cumulonimbus.

METAR: EGDY 232150Z 31007KT CAVOK 11/10 Q1032 BLU

Heure: 23:19 (22:19 UTC)

Prévision

Le bulletin a été fait il y a 8 heures et 28 minutes, à 13:51 UTC
Prévision valable du 23 à 15 UTC au 23 à 24 UTC
Vent 12 kt de nord-ouest
Visibilité 10 km ou plus
Quelques nuages à une hauteur de 1500 ft
Evoluant progressivement
du 23 à 19 UTC au 23 à 22 UTC
Vent 5 kt de nord-ouest
Temporairement
du 23 à 21 UTC au 23 à 24 UTC
Visibilité: 7000 m
Nuages épars à une hauteur de 600 ft
brume sèche

TAF: EGDY 231351Z 2315/2324 31012KT 9999 FEW015 BECMG 2319/2322 31005KT TEMPO 2321/2324 7000 HZ SCT006

Observations et prévisions météorologiques de plus de 4000 aéroports (messages METAR et TAF).

Les stations disponibles sont représentées par des disques jaunes et rouges sur la carte.

Passer la souris dessus pour voir le nom de la station.

Cliquer dessus pour voir les observations et prévisions météorologiques.

Pour changer de carte: cliquez sur les boutons verts avec une croix noire pour zoomer, sur le bouton vert avec un tiret pour effectuer un zoom arrière, ou sur les flèches vertes pour les cartes adjacentes.


METAR-TAF: